createdAt,value
2018-06-25T00:00:58.686Z,98.52
2018-06-25T00:01:58.713Z,98.04
2018-06-25T00:02:58.716Z,99.76
2018-06-25T00:03:58.687Z,98.61
2018-06-25T00:04:58.679Z,99.29
2018-06-25T00:05:58.700Z,99.57
2018-06-25T00:06:58.690Z,99.99
2018-06-25T00:07:58.719Z,99.96
2018-06-25T00:08:58.710Z,99.67
2018-06-25T00:09:58.705Z,99.48
2018-06-25T00:10:58.690Z,99.86
2018-06-25T00:11:58.706Z,99.76
2018-06-25T00:12:58.680Z,99.76
2018-06-25T00:13:58.722Z,99.29
2018-06-25T00:14:58.913Z,99.48
2018-06-25T00:15:58.715Z,99.86
2018-06-25T00:16:58.677Z,98.24
2018-06-25T00:17:58.716Z,99.19
2018-06-25T00:18:58.693Z,99.10
2018-06-25T00:19:58.725Z,99.10
2018-06-25T00:20:58.739Z,98.71
2018-06-25T00:21:58.738Z,99.00
2018-06-25T00:22:58.760Z,98.24
2018-06-25T00:23:59.985Z,98.14
2018-06-25T00:24:58.738Z,98.71
2018-06-25T00:25:58.705Z,99.96
2018-06-25T00:26:58.710Z,99.29
2018-06-25T00:27:58.719Z,99.57
2018-06-25T00:28:58.730Z,99.67
2018-06-25T00:29:58.685Z,97.75
2018-06-25T00:30:58.754Z,99.48
2018-06-25T00:31:58.725Z,99.29
2018-06-25T00:32:58.721Z,98.90
2018-06-25T00:33:58.714Z,99.57
2018-06-25T00:34:58.687Z,99.67
2018-06-25T00:35:58.693Z,99.99
2018-06-25T00:36:58.706Z,99.48
2018-06-25T00:37:58.764Z,99.67
2018-06-25T00:38:58.754Z,99.99
2018-06-25T00:39:58.736Z,99.96
2018-06-25T00:40:58.718Z,99.99
2018-06-25T00:41:58.760Z,99.67
2018-06-25T00:42:58.823Z,99.99
2018-06-25T00:43:58.754Z,99.38
2018-06-25T00:44:58.737Z,99.86
2018-06-25T00:45:58.723Z,99.19
2018-06-25T00:46:58.831Z,99.38
2018-06-25T00:47:58.762Z,99.86
2018-06-25T00:48:58.728Z,99.67
2018-06-25T00:49:58.754Z,99.76
2018-06-25T00:50:58.842Z,99.29
2018-06-25T00:51:58.761Z,99.86
2018-06-25T00:52:58.749Z,99.19
2018-06-25T00:53:58.772Z,99.00
2018-06-25T00:54:58.762Z,98.71
2018-06-25T00:55:58.739Z,99.67
2018-06-25T00:56:58.733Z,99.19
2018-06-25T00:57:58.737Z,99.48
2018-06-25T00:58:58.764Z,99.86
2018-06-25T00:59:58.749Z,99.29
2018-06-25T01:00:58.765Z,99.00
2018-06-25T01:01:58.761Z,99.57
2018-06-25T01:02:58.783Z,99.57
2018-06-25T01:03:58.736Z,99.10
2018-06-25T01:04:58.756Z,99.38
2018-06-25T01:05:58.815Z,98.61
2018-06-25T01:06:58.780Z,99.57
2018-06-25T01:07:58.763Z,99.67
2018-06-25T01:08:58.781Z,99.67
2018-06-25T01:09:58.810Z,99.57
2018-06-25T01:10:58.803Z,99.57
2018-06-25T01:11:58.761Z,99.29
2018-06-25T01:12:58.780Z,99.48
2018-06-25T01:13:58.785Z,99.99
2018-06-25T01:14:58.763Z,99.99
2018-06-25T01:15:58.776Z,99.99
2018-06-25T01:16:58.785Z,99.99
2018-06-25T01:17:58.801Z,99.99
2018-06-25T01:18:58.816Z,99.29
2018-06-25T01:19:58.908Z,99.67
2018-06-25T01:20:58.780Z,99.38
2018-06-25T01:21:58.774Z,99.29
2018-06-25T01:22:58.800Z,99.38
2018-06-25T01:23:58.839Z,99.38
2018-06-25T01:24:58.770Z,99.96
2018-06-25T01:25:58.811Z,98.71
2018-06-25T01:26:58.775Z,99.29
2018-06-25T01:27:58.810Z,99.48
2018-06-25T01:28:58.819Z,99.48
2018-06-25T01:29:58.891Z,99.99
2018-06-25T01:30:58.810Z,99.86
2018-06-25T01:31:58.851Z,99.86
2018-06-25T01:32:58.841Z,99.10
2018-06-25T01:33:58.843Z,98.90
2018-06-25T01:34:58.872Z,98.61
2018-06-25T01:35:58.852Z,98.90
2018-06-25T01:36:58.825Z,98.52
2018-06-25T01:37:58.797Z,98.52
2018-06-25T01:38:58.832Z,98.81
2018-06-25T01:39:58.837Z,98.61
2018-06-25T01:40:58.864Z,98.71
2018-06-25T01:41:58.853Z,99.00
2018-06-25T01:42:58.817Z,98.43
2018-06-25T01:43:58.903Z,98.04
2018-06-25T01:44:58.801Z,98.33
2018-06-25T01:45:58.856Z,98.81
2018-06-25T01:46:58.859Z,99.00
2018-06-25T01:47:58.835Z,99.00
2018-06-25T01:48:58.856Z,98.52
2018-06-25T01:49:58.841Z,97.37
2018-06-25T01:50:59.404Z,97.08
2018-06-25T01:51:58.875Z,97.56
2018-06-25T01:52:58.836Z,97.37
2018-06-25T01:53:58.848Z,96.99
2018-06-25T01:54:58.830Z,96.42
2018-06-25T01:55:58.843Z,96.80
2018-06-25T01:56:58.892Z,96.99
2018-06-25T01:57:58.839Z,96.32
2018-06-25T01:58:58.833Z,95.94
2018-06-25T01:59:58.887Z,96.03
2018-06-25T02:00:58.925Z,96.03
2018-06-25T02:01:58.855Z,95.65
2018-06-25T02:02:58.890Z,95.94
2018-06-25T02:03:58.862Z,95.36
2018-06-25T02:04:58.892Z,95.36
2018-06-25T02:05:58.841Z,96.03
2018-06-25T02:06:58.905Z,95.46
2018-06-25T02:07:58.874Z,95.07
2018-06-25T02:08:58.878Z,95.17
2018-06-25T02:09:58.905Z,94.89
2018-06-25T02:10:58.868Z,94.98
2018-06-25T02:11:58.906Z,94.89
2018-06-25T02:12:58.891Z,94.60
2018-06-25T02:13:58.883Z,94.50
2018-06-25T02:14:58.896Z,93.84
2018-06-25T02:15:58.894Z,93.45
2018-06-25T02:16:58.862Z,94.02
2018-06-25T02:17:58.894Z,93.16
2018-06-25T02:18:58.939Z,93.16
2018-06-25T02:19:58.864Z,92.30
2018-06-25T02:20:58.898Z,92.88
2018-06-25T02:21:58.954Z,92.88
2018-06-25T02:22:58.904Z,92.49
2018-06-25T02:23:58.880Z,92.30
2018-06-25T02:24:58.894Z,91.35
2018-06-25T02:25:58.871Z,91.16
2018-06-25T02:26:58.928Z,90.77
2018-06-25T02:27:58.899Z,90.01
2018-06-25T02:28:58.916Z,90.58
2018-06-25T02:29:58.919Z,89.81
2018-06-25T02:30:58.910Z,89.53
2018-06-25T02:31:58.936Z,89.34
2018-06-25T02:32:58.898Z,89.05
2018-06-25T02:33:58.884Z,89.05
2018-06-25T02:34:58.888Z,88.67
2018-06-25T02:35:58.918Z,87.81
2018-06-25T02:36:58.904Z,88.09
2018-06-25T02:37:58.917Z,88.00
2018-06-25T02:38:58.959Z,87.71
2018-06-25T02:39:58.900Z,87.71
2018-06-25T02:40:58.922Z,87.81
2018-06-25T02:41:58.938Z,87.81
2018-06-25T02:42:59.022Z,87.23
2018-06-25T02:43:58.928Z,87.33
2018-06-25T02:44:58.993Z,87.52
2018-06-25T02:45:59.003Z,87.23
2018-06-25T02:46:58.929Z,87.33
2018-06-25T02:47:58.981Z,86.94
2018-06-25T02:48:58.926Z,87.04
2018-06-25T02:49:58.930Z,87.14
2018-06-25T02:50:58.952Z,87.04
2018-06-25T02:51:58.923Z,86.66
2018-06-25T02:52:58.911Z,86.85
2018-06-25T02:53:58.928Z,86.37
2018-06-25T02:54:58.926Z,85.80
2018-06-25T02:55:58.953Z,85.71
2018-06-25T02:56:58.938Z,85.71
2018-06-25T02:57:58.960Z,85.61
2018-06-25T02:58:58.929Z,85.71
2018-06-25T02:59:58.946Z,86.37
2018-06-25T03:00:58.928Z,86.37
2018-06-25T03:01:58.919Z,85.51
2018-06-25T03:02:58.937Z,85.71
2018-06-25T03:03:58.992Z,85.41
2018-06-25T03:04:58.957Z,85.80
2018-06-25T03:05:58.953Z,85.71
2018-06-25T03:06:58.962Z,85.99
2018-06-25T03:07:58.977Z,85.41
2018-06-25T03:08:58.936Z,84.55
2018-06-25T03:09:58.969Z,84.94
2018-06-25T03:10:58.983Z,84.65
2018-06-25T03:11:58.983Z,84.46
2018-06-25T03:12:58.988Z,84.17
2018-06-25T03:13:58.996Z,84.27
2018-06-25T03:14:58.980Z,84.08
2018-06-25T03:15:58.951Z,84.08
2018-06-25T03:16:59.023Z,84.17
2018-06-25T03:17:59.044Z,84.08
2018-06-25T03:18:58.954Z,84.08
2018-06-25T03:19:59.109Z,83.98
2018-06-25T03:20:59.336Z,83.79
2018-06-25T03:21:59.014Z,84.17
2018-06-25T03:22:59.007Z,84.17
2018-06-25T03:23:58.984Z,84.36
2018-06-25T03:24:58.994Z,83.89
2018-06-25T03:25:59.002Z,83.79
2018-06-25T03:26:58.964Z,84.17
2018-06-25T03:27:59.032Z,83.60
2018-06-25T03:28:58.994Z,84.36
2018-06-25T03:29:58.975Z,84.36
2018-06-25T03:30:59.020Z,84.08
2018-06-25T03:31:58.981Z,84.27
2018-06-25T03:32:58.985Z,84.17
2018-06-25T03:33:58.983Z,84.75
2018-06-25T03:34:58.989Z,84.17
2018-06-25T03:35:59.047Z,84.17
2018-06-25T03:36:59.007Z,84.08
2018-06-25T03:37:59.055Z,83.79
2018-06-25T03:38:58.984Z,83.69
2018-06-25T03:39:59.008Z,84.36
2018-06-25T03:40:59.033Z,84.27
2018-06-25T03:41:59.030Z,84.27
2018-06-25T03:42:59.039Z,84.27
2018-06-25T03:43:59.026Z,83.89
2018-06-25T03:44:59.028Z,83.79
2018-06-25T03:45:59.090Z,83.89
2018-06-25T03:46:59.027Z,83.69
2018-06-25T03:47:59.011Z,83.89
2018-06-25T03:48:59.018Z,83.50
2018-06-25T03:49:58.999Z,83.79
2018-06-25T03:50:59.013Z,83.79
2018-06-25T03:51:59.015Z,83.40
2018-06-25T03:52:59.007Z,84.08
2018-06-25T03:53:59.925Z,84.08
2018-06-25T03:54:59.050Z,83.50
2018-06-25T03:55:59.059Z,83.79
2018-06-25T03:56:59.060Z,83.12
2018-06-25T03:57:59.034Z,83.22
2018-06-25T03:58:59.928Z,83.69
2018-06-25T03:59:59.065Z,84.17
2018-06-25T04:00:59.123Z,84.17
2018-06-25T04:01:59.087Z,83.60
2018-06-25T04:02:59.044Z,83.22
2018-06-25T04:03:59.026Z,83.69
2018-06-25T04:04:59.095Z,83.50
2018-06-25T04:05:59.061Z,83.40
2018-06-25T04:06:59.072Z,83.31
2018-06-25T04:07:59.095Z,83.03
2018-06-25T04:08:59.078Z,83.31
2018-06-25T04:09:59.061Z,83.22
2018-06-25T04:10:59.094Z,83.31
2018-06-25T04:11:59.067Z,83.03
2018-06-25T04:13:00.015Z,83.12
2018-06-25T04:13:59.057Z,83.31
2018-06-25T04:14:59.083Z,83.31
2018-06-25T04:15:59.076Z,83.22
2018-06-25T04:16:59.128Z,83.12
2018-06-25T04:17:59.086Z,83.31
2018-06-25T04:18:59.108Z,83.03
2018-06-25T04:19:59.083Z,83.31
2018-06-25T04:20:59.087Z,83.50
2018-06-25T04:21:59.099Z,83.79
2018-06-25T04:22:59.109Z,83.69
2018-06-25T04:23:59.112Z,83.40
2018-06-25T04:24:59.141Z,83.69
2018-06-25T04:25:59.130Z,83.79
2018-06-25T04:26:59.092Z,83.40
2018-06-25T04:27:59.066Z,83.60
2018-06-25T04:28:59.129Z,83.03
2018-06-25T04:29:59.091Z,83.69
2018-06-25T04:30:59.107Z,83.98
2018-06-25T04:31:59.147Z,84.17
2018-06-25T04:32:59.096Z,83.98
2018-06-25T04:33:59.125Z,83.50
2018-06-25T04:34:59.103Z,83.79
2018-06-25T04:35:59.201Z,83.89
2018-06-25T04:36:59.117Z,83.50
2018-06-25T04:37:59.100Z,83.64
2018-06-25T04:38:59.126Z,83.69
2018-06-25T04:39:59.132Z,83.83
2018-06-25T04:40:59.132Z,83.83
2018-06-25T04:41:59.257Z,83.54
2018-06-25T04:43:00.046Z,83.83
2018-06-25T04:43:59.137Z,83.83
2018-06-25T04:44:59.099Z,83.64
2018-06-25T04:45:59.105Z,84.41
2018-06-25T04:46:59.095Z,84.79
2018-06-25T04:47:59.105Z,85.13
2018-06-25T04:48:59.115Z,84.79
2018-06-25T04:49:59.098Z,84.59
2018-06-25T04:50:59.949Z,84.69
2018-06-25T04:51:59.153Z,84.69
2018-06-25T04:52:59.129Z,84.88
2018-06-25T04:53:59.138Z,85.46
2018-06-25T04:54:59.153Z,85.55
2018-06-25T04:55:59.120Z,84.79
2018-06-25T04:56:59.146Z,85.27
2018-06-25T04:57:59.145Z,85.17
2018-06-25T04:58:59.109Z,85.94
2018-06-25T04:59:59.147Z,86.04
2018-06-25T05:00:59.162Z,85.94
2018-06-25T05:01:59.171Z,85.84
2018-06-25T05:02:59.954Z,86.04
2018-06-25T05:03:59.133Z,86.61
2018-06-25T05:04:59.954Z,86.80
2018-06-25T05:05:59.129Z,88.13
2018-06-25T05:06:59.128Z,87.47
2018-06-25T05:07:59.159Z,86.70
2018-06-25T05:08:59.129Z,86.90
2018-06-25T05:09:59.214Z,86.70
2018-06-25T05:10:59.188Z,87.27
2018-06-25T05:11:59.140Z,87.08
2018-06-25T05:12:59.208Z,86.90
2018-06-25T05:13:59.198Z,86.61
2018-06-25T05:14:59.131Z,86.22
2018-06-25T05:15:59.203Z,85.84
2018-06-25T05:16:59.180Z,86.41
2018-06-25T05:17:59.194Z,86.61
2018-06-25T05:18:59.180Z,85.46
2018-06-25T05:19:59.196Z,85.84
2018-06-25T05:20:59.196Z,86.70
2018-06-25T05:21:59.186Z,86.61
2018-06-25T05:22:59.190Z,86.70
2018-06-25T05:23:59.212Z,86.51
2018-06-25T05:24:59.232Z,87.27
2018-06-25T05:25:59.156Z,87.27
2018-06-25T05:26:59.191Z,88.33
2018-06-25T05:27:59.196Z,87.85
2018-06-25T05:28:59.200Z,88.04
2018-06-25T05:29:59.226Z,87.56
2018-06-25T05:30:59.160Z,88.04
2018-06-25T05:31:59.185Z,87.95
2018-06-25T05:32:59.204Z,88.09
2018-06-25T05:33:59.216Z,87.90
2018-06-25T05:34:59.170Z,88.81
2018-06-25T05:35:59.317Z,88.52
2018-06-25T05:36:59.208Z,88.81
2018-06-25T05:37:59.216Z,88.43
2018-06-25T05:38:59.195Z,87.76
2018-06-25T05:39:59.957Z,87.95
2018-06-25T05:40:59.234Z,88.09
2018-06-25T05:41:59.187Z,89.09
2018-06-25T05:42:59.200Z,88.85
2018-06-25T05:43:59.208Z,88.76
2018-06-25T05:44:59.281Z,89.81
2018-06-25T05:45:59.268Z,89.04
2018-06-25T05:46:59.233Z,89.04
2018-06-25T05:47:59.288Z,89.14
2018-06-25T05:48:59.297Z,89.62
2018-06-25T05:49:59.238Z,89.52
2018-06-25T05:50:59.224Z,89.90
2018-06-25T05:51:59.192Z,90.19
2018-06-25T05:52:59.250Z,89.33
2018-06-25T05:53:59.232Z,90.00
2018-06-25T05:54:59.202Z,90.58
2018-06-25T05:55:59.298Z,89.90
2018-06-25T05:56:59.258Z,90.77
2018-06-25T05:57:59.249Z,90.19
2018-06-25T05:58:59.304Z,90.58
2018-06-25T05:59:59.224Z,91.63
2018-06-25T06:00:59.235Z,91.25
2018-06-25T06:01:59.222Z,91.44
2018-06-25T06:02:59.259Z,92.58
2018-06-25T06:03:59.226Z,93.64
2018-06-25T06:04:59.293Z,93.26
2018-06-25T06:05:59.264Z,94.26
2018-06-25T06:06:59.972Z,97.04
2018-06-25T06:07:59.301Z,97.14
2018-06-25T06:08:59.315Z,97.14
2018-06-25T06:09:59.263Z,96.84
2018-06-25T06:10:59.300Z,97.42
2018-06-25T06:11:59.300Z,97.52
2018-06-25T06:12:59.364Z,97.95
2018-06-25T06:13:59.321Z,98.24
2018-06-25T06:14:59.305Z,99.77
2018-06-25T06:15:59.271Z,99.19
2018-06-25T06:16:59.275Z,99.99
2018-06-25T06:17:59.302Z,99.99
2018-06-25T06:18:59.262Z,99.72
2018-06-25T06:19:59.270Z,98.96
2018-06-25T06:20:59.255Z,98.28
2018-06-25T06:21:59.295Z,98.38
2018-06-25T06:22:59.275Z,97.71
2018-06-25T06:23:59.269Z,99.68
2018-06-25T06:24:59.306Z,99.99
2018-06-25T06:25:59.414Z,99.99
2018-06-25T06:26:59.276Z,99.99
2018-06-25T06:27:59.326Z,99.99
2018-06-25T06:28:59.284Z,99.99
2018-06-25T06:29:59.264Z,99.99
2018-06-25T06:30:59.277Z,99.99
2018-06-25T06:31:59.403Z,99.99
2018-06-25T06:32:59.330Z,99.99
2018-06-25T06:33:59.303Z,99.99
2018-06-25T06:34:59.295Z,99.99
2018-06-25T06:35:59.285Z,99.99
2018-06-25T06:36:59.317Z,99.99
2018-06-25T06:37:59.981Z,99.99
2018-06-25T06:38:59.314Z,99.99
2018-06-25T06:39:59.449Z,99.99
2018-06-25T06:40:59.313Z,99.99
2018-06-25T06:41:59.301Z,99.99
2018-06-25T06:42:59.309Z,99.99
2018-06-25T06:43:59.411Z,99.99
2018-06-25T06:44:59.356Z,99.99
2018-06-25T06:45:59.321Z,99.99
2018-06-25T06:46:59.339Z,99.99
2018-06-25T06:47:59.365Z,99.99
2018-06-25T06:48:59.340Z,99.99
2018-06-25T06:49:59.308Z,99.99
2018-06-25T06:50:59.305Z,99.99
2018-06-25T06:51:59.388Z,99.99
2018-06-25T06:53:01.382Z,99.99
2018-06-25T06:54:20.621Z,99.99
2018-06-25T06:54:59.377Z,99.99
2018-06-25T06:56:00.113Z,99.99
2018-06-25T06:56:59.349Z,99.99
2018-06-25T06:57:59.339Z,99.99
2018-06-25T06:58:59.331Z,99.99
2018-06-25T06:59:59.407Z,99.99
2018-06-25T07:00:59.416Z,99.99
2018-06-25T07:01:59.355Z,99.99
2018-06-25T07:02:59.415Z,99.99
2018-06-25T07:03:59.382Z,99.99
2018-06-25T07:04:59.365Z,99.99
2018-06-25T07:05:59.418Z,99.99
2018-06-25T07:06:59.403Z,99.99
2018-06-25T07:07:59.344Z,99.99
2018-06-25T07:08:59.331Z,99.99
2018-06-25T07:09:59.336Z,99.99
2018-06-25T07:10:59.434Z,99.99
2018-06-25T07:11:59.421Z,99.99
2018-06-25T07:12:59.500Z,99.99
2018-06-25T07:13:59.413Z,99.99
2018-06-25T07:14:59.461Z,99.99
2018-06-25T07:15:59.464Z,99.99
2018-06-25T07:16:59.389Z,99.99
2018-06-25T07:18:00.530Z,99.99
2018-06-25T07:18:59.408Z,99.99
2018-06-25T07:19:59.395Z,99.99
2018-06-25T07:20:59.407Z,99.99
2018-06-25T07:21:59.405Z,99.99
2018-06-25T07:22:59.362Z,99.99
2018-06-25T07:23:59.392Z,99.99
2018-06-25T07:24:59.402Z,99.99
2018-06-25T07:25:59.453Z,99.99
2018-06-25T07:26:59.411Z,99.99
2018-06-25T07:27:59.445Z,99.99
2018-06-25T07:28:59.379Z,99.99
2018-06-25T07:29:59.501Z,99.99
2018-06-25T07:30:59.428Z,99.99
2018-06-25T07:31:59.569Z,99.99
2018-06-25T07:32:59.488Z,99.99
2018-06-25T07:33:59.487Z,99.99
2018-06-25T07:34:59.517Z,99.99
2018-06-25T07:36:00.021Z,99.99
2018-06-25T07:36:59.496Z,99.99
2018-06-25T07:37:59.491Z,99.99
2018-06-25T07:38:59.430Z,99.99
2018-06-25T07:39:59.553Z,99.99
2018-06-25T07:40:59.451Z,99.99
2018-06-25T07:41:59.572Z,99.99
2018-06-25T07:42:59.538Z,99.99
2018-06-25T07:43:59.535Z,99.99
2018-06-25T07:44:59.474Z,99.99
2018-06-25T07:46:00.108Z,99.99
2018-06-25T07:46:59.504Z,99.99
2018-06-25T07:48:00.011Z,99.99
2018-06-25T07:48:59.467Z,99.99
2018-06-25T07:49:59.501Z,99.99
2018-06-25T07:50:59.460Z,99.99
2018-06-25T07:51:59.514Z,99.99
2018-06-25T07:52:59.481Z,99.99
2018-06-25T07:53:59.526Z,99.99
2018-06-25T07:54:59.491Z,99.99
2018-06-25T07:55:59.444Z,99.99
2018-06-25T07:56:59.450Z,99.99
2018-06-25T07:57:59.516Z,99.99
2018-06-25T07:58:59.464Z,99.99
2018-06-25T07:59:59.471Z,99.99
2018-06-25T08:00:59.569Z,99.99
2018-06-25T08:02:00.022Z,99.99
2018-06-25T08:02:59.495Z,99.99
2018-06-25T08:03:59.676Z,99.99
2018-06-25T08:04:59.484Z,99.99
2018-06-25T08:05:59.513Z,99.99
2018-06-25T08:06:59.512Z,99.99
2018-06-25T08:07:59.524Z,99.99
2018-06-25T08:08:59.512Z,99.99
2018-06-25T08:09:59.535Z,99.99
2018-06-25T08:10:59.559Z,99.99
2018-06-25T08:12:00.523Z,99.99
2018-06-25T08:13:00.063Z,99.99
2018-06-25T08:13:59.537Z,99.99
2018-06-25T08:15:00.210Z,99.99
2018-06-25T08:15:59.683Z,99.99
2018-06-25T08:16:59.691Z,99.99
2018-06-25T08:17:59.687Z,99.99
2018-06-25T08:18:59.637Z,99.99
2018-06-25T08:19:59.547Z,99.99
2018-06-25T08:20:59.535Z,99.99
2018-06-25T08:22:00.083Z,99.99
2018-06-25T08:22:59.627Z,99.99
2018-06-25T08:23:59.664Z,99.99
2018-06-25T08:24:59.741Z,99.99
2018-06-25T08:26:02.137Z,99.99
2018-06-25T08:26:59.535Z,99.99
2018-06-25T08:27:59.563Z,99.99
2018-06-25T08:28:59.540Z,99.99
2018-06-25T08:29:59.711Z,99.99
2018-06-25T08:31:01.143Z,99.99
2018-06-25T08:32:00.621Z,99.99
2018-06-25T08:32:59.800Z,99.99
2018-06-25T08:33:59.791Z,99.99
2018-06-25T08:34:59.609Z,99.99
2018-06-25T08:35:59.761Z,99.99
2018-06-25T08:36:59.903Z,99.99
2018-06-25T08:38:00.647Z,99.99
2018-06-25T08:38:59.647Z,99.99
2018-06-25T08:39:59.737Z,99.99
2018-06-25T08:40:59.670Z,99.99
2018-06-25T08:41:59.697Z,99.99
2018-06-25T08:42:59.611Z,99.99
2018-06-25T08:44:00.792Z,99.99
2018-06-25T08:44:59.802Z,99.99
2018-06-25T08:46:00.032Z,99.99
2018-06-25T08:46:59.682Z,99.99
2018-06-25T08:47:59.666Z,99.99
2018-06-25T08:48:59.705Z,99.99
2018-06-25T08:49:59.822Z,99.99
2018-06-25T08:50:59.836Z,99.99
2018-06-25T08:51:59.729Z,99.99
2018-06-25T08:52:59.791Z,99.99
2018-06-25T08:53:59.662Z,99.99
2018-06-25T08:54:59.707Z,99.99
2018-06-25T08:56:00.296Z,99.99
2018-06-25T08:57:00.637Z,99.99
2018-06-25T08:58:00.300Z,99.99
2018-06-25T08:58:59.900Z,99.99
2018-06-25T08:59:59.782Z,99.99
2018-06-25T09:01:00.215Z,99.99
2018-06-25T09:02:00.551Z,99.99
2018-06-25T09:02:59.693Z,99.99
2018-06-25T09:03:59.732Z,99.99
2018-06-25T09:05:00.544Z,99.99
2018-06-25T09:05:59.659Z,99.99
2018-06-25T09:06:59.646Z,99.99
2018-06-25T09:07:59.649Z,99.99
2018-06-25T09:08:59.660Z,99.99
2018-06-25T09:09:59.656Z,99.99
2018-06-25T09:10:59.663Z,99.99
2018-06-25T09:12:00.543Z,99.99
2018-06-25T09:12:59.783Z,99.99
2018-06-25T09:13:59.755Z,99.99
2018-06-25T09:14:59.679Z,99.99
2018-06-25T09:15:59.670Z,99.99
2018-06-25T09:16:59.800Z,99.99
2018-06-25T09:17:59.752Z,99.99
2018-06-25T09:18:59.659Z,99.99
2018-06-25T09:19:59.670Z,99.99
2018-06-25T09:20:59.788Z,99.99
2018-06-25T09:21:59.780Z,99.99
2018-06-25T09:22:59.785Z,99.99
2018-06-25T09:23:59.691Z,99.99
2018-06-25T09:24:59.672Z,99.99
2018-06-25T09:25:59.696Z,99.99
2018-06-25T09:26:59.751Z,99.99
2018-06-25T09:27:59.763Z,99.99
2018-06-25T09:28:59.699Z,99.99
2018-06-25T09:29:59.754Z,99.99
2018-06-25T09:30:59.711Z,99.99
2018-06-25T09:31:59.822Z,99.99
2018-06-25T09:33:00.135Z,99.99
2018-06-25T09:33:59.772Z,99.99
2018-06-25T09:34:59.785Z,99.99
2018-06-25T09:35:59.820Z,99.99
2018-06-25T09:36:59.825Z,99.99
2018-06-25T09:37:59.728Z,99.99
2018-06-25T09:38:59.747Z,99.99
2018-06-25T09:39:59.765Z,99.99
2018-06-25T09:40:59.957Z,99.99
2018-06-25T09:42:00.013Z,99.99
2018-06-25T09:42:59.992Z,99.99
2018-06-25T09:44:00.759Z,99.99
2018-06-25T09:44:59.749Z,99.99
2018-06-25T09:45:59.881Z,99.99
2018-06-25T09:46:59.957Z,99.99
2018-06-25T09:48:01.560Z,99.99
2018-06-25T09:48:59.866Z,99.99
2018-06-25T09:50:00.041Z,99.99
2018-06-25T09:50:59.865Z,99.99
2018-06-25T09:52:01.002Z,99.99
2018-06-25T09:52:59.903Z,99.99
2018-06-25T09:53:59.917Z,99.99
2018-06-25T09:55:00.042Z,99.99
2018-06-25T09:55:59.876Z,99.99
2018-06-25T09:56:59.850Z,99.99
2018-06-25T09:58:00.254Z,99.99
2018-06-25T09:58:59.996Z,99.99
2018-06-25T09:59:59.841Z,99.99
2018-06-25T10:00:59.870Z,99.99
2018-06-25T10:01:59.951Z,99.99
2018-06-25T10:02:59.928Z,99.99
2018-06-25T10:03:59.921Z,99.99
2018-06-25T10:05:00.574Z,99.99
2018-06-25T10:05:59.891Z,99.99
2018-06-25T10:07:00.766Z,99.99
2018-06-25T10:08:01.977Z,99.99
2018-06-25T10:08:59.996Z,99.99
2018-06-25T10:10:00.194Z,99.99
2018-06-25T10:11:00.572Z,99.99
2018-06-25T10:11:59.981Z,99.99
2018-06-25T10:13:00.600Z,99.99
2018-06-25T10:14:00.703Z,99.99
2018-06-25T10:14:59.996Z,99.99
2018-06-25T10:15:59.949Z,99.99
2018-06-25T10:16:59.963Z,99.99
2018-06-25T10:17:59.951Z,99.99
2018-06-25T10:18:59.942Z,99.99
2018-06-25T10:19:59.950Z,99.99
2018-06-25T10:21:00.159Z,99.99
2018-06-25T10:21:59.991Z,99.99
2018-06-25T10:23:00.013Z,98.39
2018-06-25T10:23:59.971Z,97.77
2018-06-25T10:25:00.044Z,98.25
2018-06-25T10:25:59.977Z,97.96
2018-06-25T10:26:59.994Z,98.25
2018-06-25T10:28:00.094Z,99.60
2018-06-25T10:29:00.016Z,99.99
2018-06-25T10:30:00.074Z,99.99
2018-06-25T10:31:00.065Z,99.99
2018-06-25T10:32:00.014Z,99.99
2018-06-25T10:33:00.008Z,99.99
2018-06-25T10:33:59.995Z,99.99
2018-06-25T10:35:00.049Z,99.99
2018-06-25T10:36:00.040Z,99.99
2018-06-25T10:37:00.040Z,99.99
2018-06-25T10:38:01.091Z,99.99
2018-06-25T10:39:00.048Z,99.99
2018-06-25T10:40:00.038Z,99.99
2018-06-25T10:41:00.102Z,98.20
2018-06-25T10:42:00.679Z,95.49
2018-06-25T10:43:00.093Z,96.84
2018-06-25T10:44:00.164Z,94.38
2018-06-25T10:45:00.079Z,92.88
2018-06-25T10:46:00.137Z,95.54
2018-06-25T10:47:00.073Z,98.97
2018-06-25T10:48:00.118Z,99.40
2018-06-25T10:49:00.103Z,99.99
2018-06-25T10:50:00.149Z,99.99
2018-06-25T10:51:00.173Z,99.99
2018-06-25T10:52:00.187Z,99.99
2018-06-25T10:53:00.125Z,99.99
2018-06-25T10:54:00.157Z,99.99
2018-06-25T10:55:00.136Z,99.99
2018-06-25T10:56:00.152Z,99.99
2018-06-25T10:57:00.145Z,99.99
2018-06-25T10:58:00.151Z,99.99
2018-06-25T10:59:00.185Z,99.99
2018-06-25T11:00:00.380Z,99.99
2018-06-25T11:01:00.749Z,99.99
2018-06-25T11:02:00.140Z,99.99
2018-06-25T11:03:00.181Z,99.99
2018-06-25T11:04:00.226Z,99.99
2018-06-25T11:05:00.176Z,99.99
2018-06-25T11:06:00.177Z,99.55
2018-06-25T11:07:00.188Z,97.14
2018-06-25T11:08:00.217Z,96.56
2018-06-25T11:09:00.294Z,95.98
2018-06-25T11:10:00.233Z,95.88
2018-06-25T11:11:00.316Z,94.33
2018-06-25T11:12:00.249Z,95.10
2018-06-25T11:13:00.257Z,93.90
2018-06-25T11:14:00.258Z,92.35
2018-06-25T11:15:00.232Z,90.90
2018-06-25T11:16:00.257Z,91.33
2018-06-25T11:17:00.238Z,90.07
2018-06-25T11:18:00.236Z,89.88
2018-06-25T11:19:00.253Z,90.94
2018-06-25T11:20:00.255Z,92.30
2018-06-25T11:21:00.279Z,91.38
2018-06-25T11:22:00.426Z,90.90
2018-06-25T11:23:00.274Z,90.22
2018-06-25T11:24:00.298Z,90.75
2018-06-25T11:25:00.298Z,92.55
2018-06-25T11:26:00.308Z,93.41
2018-06-25T11:27:00.384Z,94.19
2018-06-25T11:28:00.339Z,95.50
2018-06-25T11:29:00.300Z,97.14
2018-06-25T11:30:00.349Z,97.57
2018-06-25T11:31:00.301Z,98.63
2018-06-25T11:32:00.411Z,99.84
2018-06-25T11:33:00.320Z,99.99
2018-06-25T11:34:00.376Z,99.99
2018-06-25T11:35:00.408Z,99.99
2018-06-25T11:36:00.423Z,97.91
2018-06-25T11:37:00.421Z,97.19
2018-06-25T11:38:00.420Z,92.49
2018-06-25T11:39:00.378Z,91.09
2018-06-25T11:40:00.373Z,87.99
2018-06-25T11:41:00.380Z,86.98
2018-06-25T11:42:00.489Z,87.79
2018-06-25T11:43:00.435Z,88.09
2018-06-25T11:44:01.153Z,87.31
2018-06-25T11:45:00.498Z,85.47
2018-06-25T11:46:01.132Z,87.74
2018-06-25T11:47:00.411Z,84.45
2018-06-25T11:48:00.469Z,85.03
2018-06-25T11:49:00.521Z,84.89
2018-06-25T11:50:00.564Z,84.99
2018-06-25T11:51:02.636Z,85.14
2018-06-25T11:52:00.497Z,85.33
2018-06-25T11:53:02.081Z,85.91
2018-06-25T11:54:00.656Z,86.55
2018-06-25T11:55:00.654Z,88.24
2018-06-25T11:56:00.578Z,90.03
2018-06-25T11:57:00.494Z,92.50
2018-06-25T11:58:00.536Z,93.71
2018-06-25T11:59:00.763Z,96.56
2018-06-25T12:00:00.596Z,97.24
2018-06-25T12:01:00.484Z,96.41
2018-06-25T12:02:00.582Z,95.83
2018-06-25T12:03:00.613Z,95.59
2018-06-25T12:04:02.133Z,93.13
2018-06-25T12:05:00.536Z,92.59
2018-06-25T12:06:00.513Z,91.05
2018-06-25T12:07:00.559Z,89.01
2018-06-25T12:08:00.584Z,88.92
2018-06-25T12:09:00.575Z,87.47
2018-06-25T12:10:00.734Z,88.09
2018-06-25T12:11:00.579Z,86.16
2018-06-25T12:12:00.557Z,87.55
2018-06-25T12:13:00.607Z,84.46
2018-06-25T12:14:00.633Z,85.37
2018-06-25T12:15:00.594Z,84.45
2018-06-25T12:16:01.233Z,82.80
2018-06-25T12:17:00.570Z,82.22
2018-06-25T12:18:00.559Z,80.47
2018-06-25T12:19:00.598Z,81.35
2018-06-25T12:20:00.688Z,81.29
2018-06-25T12:21:00.652Z,82.45
2018-06-25T12:22:00.593Z,79.84
2018-06-25T12:23:00.684Z,79.02
2018-06-25T12:24:00.704Z,80.49
2018-06-25T12:25:00.640Z,82.91
2018-06-25T12:26:01.145Z,83.45
2018-06-25T12:27:00.658Z,84.13
2018-06-25T12:28:00.852Z,83.61
2018-06-25T12:29:02.312Z,85.05
2018-06-25T12:30:00.924Z,85.44
2018-06-25T12:31:00.683Z,85.05
2018-06-25T12:32:00.656Z,85.77
2018-06-25T12:33:00.689Z,85.10
2018-06-25T12:34:00.643Z,84.17
2018-06-25T12:35:00.720Z,83.92
2018-06-25T12:36:00.674Z,84.31
2018-06-25T12:37:00.662Z,83.44
2018-06-25T12:38:00.775Z,82.81
2018-06-25T12:39:01.151Z,83.78
2018-06-25T12:40:00.674Z,85.62
2018-06-25T12:41:00.668Z,84.08
2018-06-25T12:42:00.717Z,83.83
2018-06-25T12:43:00.788Z,79.76
2018-06-25T12:44:00.707Z,81.02
2018-06-25T12:45:00.706Z,80.44
2018-06-25T12:46:00.708Z,81.12
2018-06-25T12:47:00.727Z,82.66
2018-06-25T12:48:00.758Z,82.66
2018-06-25T12:49:00.849Z,82.76
2018-06-25T12:50:01.658Z,84.69
2018-06-25T12:51:00.782Z,84.36
2018-06-25T12:52:00.759Z,84.94
2018-06-25T12:53:00.867Z,83.69